sensor_id;sensor_type;location;lat;lon;timestamp;P1;durP1;ratioP1;P2;durP2;ratioP2
41255;SDS011;26989;45.524;10.938;2023-04-24T00:01:07;12.68;;;6.78;;
41255;SDS011;26989;45.524;10.938;2023-04-24T00:03:35;9.25;;;7.20;;
41255;SDS011;26989;45.524;10.938;2023-04-24T00:06:02;8.70;;;7.28;;
41255;SDS011;26989;45.524;10.938;2023-04-24T00:08:29;9.70;;;6.93;;
41255;SDS011;26989;45.524;10.938;2023-04-24T00:10:56;8.30;;;6.88;;
41255;SDS011;26989;45.524;10.938;2023-04-24T00:13:23;9.30;;;6.75;;
41255;SDS011;26989;45.524;10.938;2023-04-24T00:15:50;8.73;;;6.53;;
41255;SDS011;26989;45.524;10.938;2023-04-24T00:18:17;7.78;;;6.65;;
41255;SDS011;26989;45.524;10.938;2023-04-24T00:20:44;8.60;;;6.43;;
41255;SDS011;26989;45.524;10.938;2023-04-24T00:23:11;10.02;;;6.30;;
41255;SDS011;26989;45.524;10.938;2023-04-24T00:25:38;9.10;;;7.00;;
41255;SDS011;26989;45.524;10.938;2023-04-24T00:28:05;8.02;;;6.32;;
41255;SDS011;26989;45.524;10.938;2023-04-24T00:30:32;9.25;;;6.30;;
41255;SDS011;26989;45.524;10.938;2023-04-24T00:32:58;7.35;;;5.88;;
41255;SDS011;26989;45.524;10.938;2023-04-24T00:35:25;10.70;;;6.35;;
41255;SDS011;26989;45.524;10.938;2023-04-24T00:37:52;10.73;;;6.65;;
41255;SDS011;26989;45.524;10.938;2023-04-24T00:40:19;8.73;;;6.28;;
41255;SDS011;26989;45.524;10.938;2023-04-24T00:42:46;7.90;;;6.30;;
41255;SDS011;26989;45.524;10.938;2023-04-24T00:45:13;7.93;;;6.57;;
41255;SDS011;26989;45.524;10.938;2023-04-24T00:47:40;7.43;;;5.80;;
41255;SDS011;26989;45.524;10.938;2023-04-24T00:50:08;8.65;;;6.03;;
41255;SDS011;26989;45.524;10.938;2023-04-24T00:52:35;7.53;;;6.03;;
41255;SDS011;26989;45.524;10.938;2023-04-24T00:55:03;10.43;;;5.90;;
41255;SDS011;26989;45.524;10.938;2023-04-24T00:57:31;7.03;;;5.85;;
41255;SDS011;26989;45.524;10.938;2023-04-24T00:59:58;8.70;;;5.53;;
41255;SDS011;26989;45.524;10.938;2023-04-24T01:02:25;6.47;;;5.45;;
41255;SDS011;26989;45.524;10.938;2023-04-24T01:04:52;7.60;;;5.47;;
41255;SDS011;26989;45.524;10.938;2023-04-24T01:07:19;9.23;;;5.70;;
41255;SDS011;26989;45.524;10.938;2023-04-24T01:09:47;6.70;;;5.45;;
41255;SDS011;26989;45.524;10.938;2023-04-24T01:12:17;7.68;;;5.75;;
41255;SDS011;26989;45.524;10.938;2023-04-24T01:14:45;7.38;;;6.28;;
41255;SDS011;26989;45.524;10.938;2023-04-24T01:17:12;7.32;;;4.72;;
41255;SDS011;26989;45.524;10.938;2023-04-24T01:19:39;7.40;;;5.35;;
41255;SDS011;26989;45.524;10.938;2023-04-24T01:22:10;8.07;;;5.53;;
41255;SDS011;26989;45.524;10.938;2023-04-24T01:24:39;8.68;;;5.70;;
41255;SDS011;26989;45.524;10.938;2023-04-24T01:27:07;6.10;;;4.80;;
41255;SDS011;26989;45.524;10.938;2023-04-24T01:29:35;6.78;;;5.45;;
41255;SDS011;26989;45.524;10.938;2023-04-24T01:32:03;7.25;;;5.47;;
41255;SDS011;26989;45.524;10.938;2023-04-24T01:34:31;8.10;;;5.45;;
41255;SDS011;26989;45.524;10.938;2023-04-24T01:36:58;6.32;;;5.22;;
41255;SDS011;26989;45.524;10.938;2023-04-24T01:39:25;6.60;;;4.90;;
41255;SDS011;26989;45.524;10.938;2023-04-24T01:41:55;6.10;;;5.20;;
41255;SDS011;26989;45.524;10.938;2023-04-24T01:44:23;6.13;;;4.60;;
41255;SDS011;26989;45.524;10.938;2023-04-24T01:46:50;8.80;;;5.57;;
41255;SDS011;26989;45.524;10.938;2023-04-24T01:49:17;9.07;;;5.30;;
41255;SDS011;26989;45.524;10.938;2023-04-24T01:51:44;7.75;;;5.63;;
41255;SDS011;26989;45.524;10.938;2023-04-24T01:54:11;7.50;;;5.80;;
41255;SDS011;26989;45.524;10.938;2023-04-24T01:56:41;8.88;;;6.20;;
41255;SDS011;26989;45.524;10.938;2023-04-24T01:59:09;10.25;;;7.03;;
41255;SDS011;26989;45.524;10.938;2023-04-24T02:01:37;10.63;;;6.93;;
41255;SDS011;26989;45.524;10.938;2023-04-24T02:04:05;11.18;;;7.63;;
41255;SDS011;26989;45.524;10.938;2023-04-24T02:06:33;10.15;;;6.95;;
41255;SDS011;26989;45.524;10.938;2023-04-24T02:09:00;11.90;;;7.75;;
41255;SDS011;26989;45.524;10.938;2023-04-24T02:11:29;9.65;;;7.40;;
41255;SDS011;26989;45.524;10.938;2023-04-24T02:13:56;11.70;;;7.53;;
41255;SDS011;26989;45.524;10.938;2023-04-24T02:16:23;13.00;;;7.90;;
41255;SDS011;26989;45.524;10.938;2023-04-24T02:18:50;14.15;;;8.20;;
41255;SDS011;26989;45.524;10.938;2023-04-24T02:21:17;13.35;;;8.95;;
41255;SDS011;26989;45.524;10.938;2023-04-24T02:23:43;14.63;;;8.77;;
41255;SDS011;26989;45.524;10.938;2023-04-24T02:26:10;16.08;;;10.40;;
41255;SDS011;26989;45.524;10.938;2023-04-24T02:28:37;13.25;;;9.32;;
41255;SDS011;26989;45.524;10.938;2023-04-24T02:31:04;17.73;;;9.95;;
41255;SDS011;26989;45.524;10.938;2023-04-24T02:33:32;14.18;;;9.77;;
41255;SDS011;26989;45.524;10.938;2023-04-24T02:35:59;12.10;;;9.52;;
41255;SDS011;26989;45.524;10.938;2023-04-24T02:38:26;11.98;;;9.02;;
41255;SDS011;26989;45.524;10.938;2023-04-24T02:40:53;12.85;;;10.48;;
41255;SDS011;26989;45.524;10.938;2023-04-24T02:43:20;16.38;;;11.27;;
41255;SDS011;26989;45.524;10.938;2023-04-24T02:45:47;15.30;;;11.50;;
41255;SDS011;26989;45.524;10.938;2023-04-24T02:48:14;13.25;;;10.65;;
41255;SDS011;26989;45.524;10.938;2023-04-24T02:50:41;15.30;;;10.68;;
41255;SDS011;26989;45.524;10.938;2023-04-24T02:53:07;14.75;;;10.65;;
41255;SDS011;26989;45.524;10.938;2023-04-24T02:55:34;14.88;;;10.75;;
41255;SDS011;26989;45.524;10.938;2023-04-24T02:58:02;15.45;;;11.30;;
41255;SDS011;26989;45.524;10.938;2023-04-24T03:00:29;15.90;;;10.77;;
41255;SDS011;26989;45.524;10.938;2023-04-24T03:02:56;14.82;;;11.35;;
41255;SDS011;26989;45.524;10.938;2023-04-24T03:05:23;19.52;;;11.65;;
41255;SDS011;26989;45.524;10.938;2023-04-24T03:07:50;18.35;;;12.95;;
41255;SDS011;26989;45.524;10.938;2023-04-24T03:10:18;16.52;;;12.75;;
41255;SDS011;26989;45.524;10.938;2023-04-24T03:12:45;17.45;;;13.18;;
41255;SDS011;26989;45.524;10.938;2023-04-24T03:15:13;18.90;;;12.57;;
41255;SDS011;26989;45.524;10.938;2023-04-24T03:17:39;14.88;;;11.88;;
41255;SDS011;26989;45.524;10.938;2023-04-24T03:20:07;16.75;;;12.18;;
41255;SDS011;26989;45.524;10.938;2023-04-24T03:22:34;14.23;;;11.90;;
41255;SDS011;26989;45.524;10.938;2023-04-24T03:25:01;13.70;;;11.35;;
41255;SDS011;26989;45.524;10.938;2023-04-24T03:27:30;12.40;;;10.85;;
41255;SDS011;26989;45.524;10.938;2023-04-24T03:29:56;15.13;;;11.90;;
41255;SDS011;26989;45.524;10.938;2023-04-24T03:32:23;17.00;;;12.77;;
41255;SDS011;26989;45.524;10.938;2023-04-24T03:34:50;16.75;;;13.43;;
41255;SDS011;26989;45.524;10.938;2023-04-24T03:37:17;18.48;;;14.13;;
41255;SDS011;26989;45.524;10.938;2023-04-24T03:39:44;16.02;;;14.20;;
41255;SDS011;26989;45.524;10.938;2023-04-24T03:42:11;18.30;;;13.48;;
41255;SDS011;26989;45.524;10.938;2023-04-24T03:44:38;20.60;;;14.63;;
41255;SDS011;26989;45.524;10.938;2023-04-24T03:47:05;14.93;;;12.88;;
41255;SDS011;26989;45.524;10.938;2023-04-24T03:49:31;15.65;;;13.05;;
41255;SDS011;26989;45.524;10.938;2023-04-24T03:51:58;16.13;;;13.05;;
41255;SDS011;26989;45.524;10.938;2023-04-24T03:54:25;17.08;;;13.93;;
41255;SDS011;26989;45.524;10.938;2023-04-24T03:56:52;17.67;;;13.07;;
41255;SDS011;26989;45.524;10.938;2023-04-24T03:59:19;17.15;;;13.23;;
41255;SDS011;26989;45.524;10.938;2023-04-24T04:01:48;16.08;;;11.77;;
41255;SDS011;26989;45.524;10.938;2023-04-24T04:04:14;16.38;;;10.95;;
41255;SDS011;26989;45.524;10.938;2023-04-24T04:06:42;15.50;;;11.80;;
41255;SDS011;26989;45.524;10.938;2023-04-24T04:09:10;14.25;;;11.63;;
41255;SDS011;26989;45.524;10.938;2023-04-24T04:11:37;17.23;;;12.68;;
41255;SDS011;26989;45.524;10.938;2023-04-24T04:14:04;15.80;;;12.43;;
41255;SDS011;26989;45.524;10.938;2023-04-24T04:16:31;15.50;;;13.07;;
41255;SDS011;26989;45.524;10.938;2023-04-24T04:18:58;18.33;;;13.18;;
41255;SDS011;26989;45.524;10.938;2023-04-24T04:21:25;16.30;;;12.85;;
41255;SDS011;26989;45.524;10.938;2023-04-24T04:23:53;16.17;;;12.00;;
41255;SDS011;26989;45.524;10.938;2023-04-24T04:26:20;18.90;;;13.85;;
41255;SDS011;26989;45.524;10.938;2023-04-24T04:28:47;18.55;;;13.88;;
41255;SDS011;26989;45.524;10.938;2023-04-24T04:31:15;16.42;;;13.15;;
41255;SDS011;26989;45.524;10.938;2023-04-24T04:33:42;17.13;;;12.88;;
41255;SDS011;26989;45.524;10.938;2023-04-24T04:36:08;16.55;;;13.65;;
41255;SDS011;26989;45.524;10.938;2023-04-24T04:38:35;18.17;;;13.60;;
41255;SDS011;26989;45.524;10.938;2023-04-24T04:41:03;18.20;;;13.05;;
41255;SDS011;26989;45.524;10.938;2023-04-24T04:43:30;20.23;;;13.80;;
41255;SDS011;26989;45.524;10.938;2023-04-24T04:45:57;19.33;;;14.25;;
41255;SDS011;26989;45.524;10.938;2023-04-24T04:48:24;18.80;;;13.90;;
41255;SDS011;26989;45.524;10.938;2023-04-24T04:50:51;20.58;;;14.70;;
41255;SDS011;26989;45.524;10.938;2023-04-24T04:53:18;7.95;;;6.40;;
41255;SDS011;26989;45.524;10.938;2023-04-24T04:55:44;7.20;;;5.95;;
41255;SDS011;26989;45.524;10.938;2023-04-24T04:58:12;4.47;;;2.95;;
41255;SDS011;26989;45.524;10.938;2023-04-24T05:00:39;4.32;;;3.28;;
41255;SDS011;26989;45.524;10.938;2023-04-24T05:03:06;3.15;;;2.10;;
41255;SDS011;26989;45.524;10.938;2023-04-24T05:05:46;4.57;;;2.55;;
41255;SDS011;26989;45.524;10.938;2023-04-24T05:08:13;5.18;;;2.45;;
41255;SDS011;26989;45.524;10.938;2023-04-24T05:10:52;1.27;;;0.95;;
41255;SDS011;26989;45.524;10.938;2023-04-24T05:13:19;2.97;;;1.40;;
41255;SDS011;26989;45.524;10.938;2023-04-24T05:16:04;3.15;;;1.10;;
41255;SDS011;26989;45.524;10.938;2023-04-24T05:18:31;2.67;;;1.08;;
41255;SDS011;26989;45.524;10.938;2023-04-24T05:20:58;2.95;;;1.55;;
41255;SDS011;26989;45.524;10.938;2023-04-24T05:23:25;2.75;;;1.27;;
41255;SDS011;26989;45.524;10.938;2023-04-24T05:25:52;1.42;;;0.80;;
41255;SDS011;26989;45.524;10.938;2023-04-24T05:28:19;0.50;;;0.40;;
41255;SDS011;26989;45.524;10.938;2023-04-24T05:30:47;1.42;;;0.70;;
41255;SDS011;26989;45.524;10.938;2023-04-24T05:33:15;1.67;;;0.50;;
41255;SDS011;26989;45.524;10.938;2023-04-24T05:35:42;1.10;;;0.50;;
41255;SDS011;26989;45.524;10.938;2023-04-24T05:38:13;1.63;;;0.80;;
41255;SDS011;26989;45.524;10.938;2023-04-24T05:40:40;1.77;;;0.40;;
41255;SDS011;26989;45.524;10.938;2023-04-24T05:43:07;2.78;;;0.40;;
41255;SDS011;26989;45.524;10.938;2023-04-24T05:45:34;1.33;;;0.73;;
41255;SDS011;26989;45.524;10.938;2023-04-24T05:48:02;1.77;;;0.70;;
41255;SDS011;26989;45.524;10.938;2023-04-24T05:50:30;1.23;;;0.50;;
41255;SDS011;26989;45.524;10.938;2023-04-24T05:52:57;1.38;;;0.90;;
41255;SDS011;26989;45.524;10.938;2023-04-24T05:55:28;0.90;;;0.90;;
41255;SDS011;26989;45.524;10.938;2023-04-24T05:57:55;5.70;;;1.20;;
41255;SDS011;26989;45.524;10.938;2023-04-24T06:00:22;0.60;;;0.45;;
41255;SDS011;26989;45.524;10.938;2023-04-24T06:02:50;1.27;;;0.50;;
41255;SDS011;26989;45.524;10.938;2023-04-24T06:05:18;1.55;;;0.60;;
41255;SDS011;26989;45.524;10.938;2023-04-24T06:07:45;1.55;;;0.40;;
41255;SDS011;26989;45.524;10.938;2023-04-24T06:10:12;4.60;;;0.82;;
41255;SDS011;26989;45.524;10.938;2023-04-24T06:12:39;1.27;;;0.95;;
41255;SDS011;26989;45.524;10.938;2023-04-24T06:15:06;1.75;;;0.65;;
41255;SDS011;26989;45.524;10.938;2023-04-24T06:17:33;1.33;;;0.50;;
41255;SDS011;26989;45.524;10.938;2023-04-24T06:20:00;1.95;;;0.80;;
41255;SDS011;26989;45.524;10.938;2023-04-24T06:22:27;1.20;;;1.10;;
41255;SDS011;26989;45.524;10.938;2023-04-24T06:24:54;0.95;;;0.95;;
41255;SDS011;26989;45.524;10.938;2023-04-24T06:27:21;1.63;;;0.90;;
41255;SDS011;26989;45.524;10.938;2023-04-24T06:29:47;0.57;;;0.52;;
41255;SDS011;26989;45.524;10.938;2023-04-24T06:32:23;0.93;;;0.43;;
41255;SDS011;26989;45.524;10.938;2023-04-24T06:34:51;3.53;;;0.30;;
41255;SDS011;26989;45.524;10.938;2023-04-24T06:37:19;0.93;;;0.43;;
41255;SDS011;26989;45.524;10.938;2023-04-24T06:39:46;2.03;;;0.50;;
41255;SDS011;26989;45.524;10.938;2023-04-24T06:42:13;2.85;;;0.60;;
41255;SDS011;26989;45.524;10.938;2023-04-24T06:44:40;1.15;;;0.50;;
41255;SDS011;26989;45.524;10.938;2023-04-24T06:47:08;1.52;;;0.30;;
41255;SDS011;26989;45.524;10.938;2023-04-24T06:49:39;1.67;;;0.68;;
41255;SDS011;26989;45.524;10.938;2023-04-24T06:52:07;2.65;;;0.90;;
41255;SDS011;26989;45.524;10.938;2023-04-24T06:54:35;1.27;;;0.80;;
41255;SDS011;26989;45.524;10.938;2023-04-24T06:57:02;2.78;;;0.85;;
41255;SDS011;26989;45.524;10.938;2023-04-24T06:59:30;0.75;;;0.50;;
41255;SDS011;26989;45.524;10.938;2023-04-24T07:01:57;0.85;;;0.65;;
41255;SDS011;26989;45.524;10.938;2023-04-24T07:04:24;0.35;;;0.30;;
41255;SDS011;26989;45.524;10.938;2023-04-24T07:06:52;1.50;;;0.10;;
41255;SDS011;26989;45.524;10.938;2023-04-24T07:09:22;0.00;;;0.00;;
41255;SDS011;26989;45.524;10.938;2023-04-24T07:12:12;0.20;;;0.10;;
41255;SDS011;26989;45.524;10.938;2023-04-24T07:14:40;0.52;;;0.10;;
41255;SDS011;26989;45.524;10.938;2023-04-24T07:17:07;0.15;;;0.08;;
41255;SDS011;26989;45.524;10.938;2023-04-24T07:19:34;1.35;;;0.20;;
41255;SDS011;26989;45.524;10.938;2023-04-24T07:22:21;0.13;;;0.10;;
41255;SDS011;26989;45.524;10.938;2023-04-24T07:24:48;1.17;;;0.10;;
41255;SDS011;26989;45.524;10.938;2023-04-24T07:27:15;1.23;;;0.10;;
41255;SDS011;26989;45.524;10.938;2023-04-24T07:29:42;0.30;;;0.10;;
41255;SDS011;26989;45.524;10.938;2023-04-24T07:32:10;2.50;;;0.17;;
41255;SDS011;26989;45.524;10.938;2023-04-24T07:34:37;0.20;;;0.10;;
41255;SDS011;26989;45.524;10.938;2023-04-24T07:37:04;1.00;;;0.40;;
41255;SDS011;26989;45.524;10.938;2023-04-24T07:39:31;0.85;;;0.10;;
41255;SDS011;26989;45.524;10.938;2023-04-24T07:41:58;0.00;;;0.00;;
41255;SDS011;26989;45.524;10.938;2023-04-24T07:44:25;0.10;;;0.10;;
41255;SDS011;26989;45.524;10.938;2023-04-24T07:46:52;0.20;;;0.20;;
41255;SDS011;26989;45.524;10.938;2023-04-24T07:49:20;0.70;;;0.20;;
41255;SDS011;26989;45.524;10.938;2023-04-24T07:51:48;0.60;;;0.10;;
41255;SDS011;26989;45.524;10.938;2023-04-24T07:54:16;0.10;;;0.00;;
41255;SDS011;26989;45.524;10.938;2023-04-24T07:56:43;0.00;;;0.00;;
41255;SDS011;26989;45.524;10.938;2023-04-24T07:59:10;0.00;;;0.00;;
41255;SDS011;26989;45.524;10.938;2023-04-24T08:01:37;0.05;;;0.00;;
41255;SDS011;26989;45.524;10.938;2023-04-24T08:04:04;1.58;;;0.00;;
41255;SDS011;26989;45.524;10.938;2023-04-24T08:06:33;0.10;;;0.10;;
41255;SDS011;26989;45.524;10.938;2023-04-24T08:09:00;0.00;;;0.00;;
41255;SDS011;26989;45.524;10.938;2023-04-24T08:11:27;0.10;;;0.00;;
41255;SDS011;26989;45.524;10.938;2023-04-24T08:13:54;0.00;;;0.00;;
41255;SDS011;26989;45.524;10.938;2023-04-24T08:16:21;0.10;;;0.10;;
41255;SDS011;26989;45.524;10.938;2023-04-24T08:18:52;0.10;;;0.10;;
41255;SDS011;26989;45.524;10.938;2023-04-24T08:21:19;1.00;;;0.10;;
41255;SDS011;26989;45.524;10.938;2023-04-24T08:23:47;0.25;;;0.15;;
41255;SDS011;26989;45.524;10.938;2023-04-24T08:26:13;0.20;;;0.20;;
41255;SDS011;26989;45.524;10.938;2023-04-24T08:28:40;0.20;;;0.08;;
41255;SDS011;26989;45.524;10.938;2023-04-24T08:31:08;0.10;;;0.03;;
41255;SDS011;26989;45.524;10.938;2023-04-24T08:33:35;0.00;;;0.00;;
41255;SDS011;26989;45.524;10.938;2023-04-24T08:36:02;0.20;;;0.10;;
41255;SDS011;26989;45.524;10.938;2023-04-24T08:38:30;0.00;;;0.00;;
41255;SDS011;26989;45.524;10.938;2023-04-24T08:40:58;0.38;;;0.00;;
41255;SDS011;26989;45.524;10.938;2023-04-24T08:43:26;0.10;;;0.10;;
41255;SDS011;26989;45.524;10.938;2023-04-24T08:45:55;0.10;;;0.08;;
41255;SDS011;26989;45.524;10.938;2023-04-24T08:48:23;0.10;;;0.03;;
41255;SDS011;26989;45.524;10.938;2023-04-24T08:50:57;1.40;;;0.45;;
41255;SDS011;26989;45.524;10.938;2023-04-24T08:53:25;0.10;;;0.10;;
41255;SDS011;26989;45.524;10.938;2023-04-24T08:55:54;1.10;;;0.10;;
41255;SDS011;26989;45.524;10.938;2023-04-24T08:58:27;0.17;;;0.10;;
41255;SDS011;26989;45.524;10.938;2023-04-24T09:00:55;4.03;;;0.20;;
41255;SDS011;26989;45.524;10.938;2023-04-24T09:03:22;0.38;;;0.10;;
41255;SDS011;26989;45.524;10.938;2023-04-24T09:05:50;0.00;;;0.00;;
41255;SDS011;26989;45.524;10.938;2023-04-24T09:08:18;0.80;;;0.20;;
41255;SDS011;26989;45.524;10.938;2023-04-24T09:10:46;2.13;;;0.20;;
41255;SDS011;26989;45.524;10.938;2023-04-24T09:13:16;1.55;;;0.20;;
41255;SDS011;26989;45.524;10.938;2023-04-24T09:15:44;1.60;;;0.10;;
41255;SDS011;26989;45.524;10.938;2023-04-24T09:18:12;0.08;;;0.00;;
41255;SDS011;26989;45.524;10.938;2023-04-24T09:23:38;0.30;;;0.15;;
41255;SDS011;26989;45.524;10.938;2023-04-24T09:26:05;0.47;;;0.17;;
41255;SDS011;26989;45.524;10.938;2023-04-24T09:28:33;0.17;;;0.10;;
41255;SDS011;26989;45.524;10.938;2023-04-24T09:31:03;0.10;;;0.10;;
41255;SDS011;26989;45.524;10.938;2023-04-24T09:33:40;1.00;;;0.03;;
41255;SDS011;26989;45.524;10.938;2023-04-24T09:36:19;0.00;;;0.00;;
41255;SDS011;26989;45.524;10.938;2023-04-24T09:38:55;0.70;;;0.10;;
41255;SDS011;26989;45.524;10.938;2023-04-24T09:41:24;0.20;;;0.20;;
41255;SDS011;26989;45.524;10.938;2023-04-24T09:43:55;0.10;;;0.00;;
41255;SDS011;26989;45.524;10.938;2023-04-24T09:46:29;0.70;;;0.20;;
41255;SDS011;26989;45.524;10.938;2023-04-24T09:49:09;0.20;;;0.10;;
41255;SDS011;26989;45.524;10.938;2023-04-24T09:51:39;0.60;;;0.40;;
41255;SDS011;26989;45.524;10.938;2023-04-24T09:54:17;0.63;;;0.15;;
41255;SDS011;26989;45.524;10.938;2023-04-24T09:56:48;0.53;;;0.20;;
41255;SDS011;26989;45.524;10.938;2023-04-24T09:59:17;0.82;;;0.50;;
41255;SDS011;26989;45.524;10.938;2023-04-24T10:01:46;1.33;;;0.30;;
41255;SDS011;26989;45.524;10.938;2023-04-24T10:04:19;1.70;;;0.30;;
41255;SDS011;26989;45.524;10.938;2023-04-24T10:06:47;0.20;;;0.20;;
41255;SDS011;26989;45.524;10.938;2023-04-24T10:09:18;0.60;;;0.35;;
41255;SDS011;26989;45.524;10.938;2023-04-24T10:11:48;0.90;;;0.50;;
41255;SDS011;26989;45.524;10.938;2023-04-24T10:14:19;0.35;;;0.30;;
41255;SDS011;26989;45.524;10.938;2023-04-24T10:16:50;0.63;;;0.20;;
41255;SDS011;26989;45.524;10.938;2023-04-24T10:19:25;1.25;;;0.40;;
41255;SDS011;26989;45.524;10.938;2023-04-24T10:21:52;0.93;;;0.30;;
41255;SDS011;26989;45.524;10.938;2023-04-24T10:24:22;0.50;;;0.20;;
41255;SDS011;26989;45.524;10.938;2023-04-24T10:26:48;3.47;;;0.40;;
41255;SDS011;26989;45.524;10.938;2023-04-24T10:29:17;1.65;;;0.30;;
41255;SDS011;26989;45.524;10.938;2023-04-24T10:31:45;0.68;;;0.50;;
41255;SDS011;26989;45.524;10.938;2023-04-24T10:34:14;1.08;;;0.25;;
41255;SDS011;26989;45.524;10.938;2023-04-24T10:36:45;0.80;;;0.30;;
41255;SDS011;26989;45.524;10.938;2023-04-24T10:39:15;1.63;;;0.30;;
41255;SDS011;26989;45.524;10.938;2023-04-24T10:41:43;0.60;;;0.30;;
41255;SDS011;26989;45.524;10.938;2023-04-24T10:44:11;0.93;;;0.47;;
41255;SDS011;26989;45.524;10.938;2023-04-24T10:46:44;0.95;;;0.45;;
41255;SDS011;26989;45.524;10.938;2023-04-24T10:49:14;0.60;;;0.40;;
41255;SDS011;26989;45.524;10.938;2023-04-24T10:51:48;2.05;;;0.35;;
41255;SDS011;26989;45.524;10.938;2023-04-24T10:54:24;1.48;;;0.40;;
41255;SDS011;26989;45.524;10.938;2023-04-24T11:02:47;2.15;;;0.50;;
41255;SDS011;26989;45.524;10.938;2023-04-24T11:05:16;0.68;;;0.40;;
41255;SDS011;26989;45.524;10.938;2023-04-24T11:10:44;0.55;;;0.30;;
41255;SDS011;26989;45.524;10.938;2023-04-24T11:13:21;1.08;;;0.60;;
41255;SDS011;26989;45.524;10.938;2023-04-24T11:18:57;0.40;;;0.30;;
41255;SDS011;26989;45.524;10.938;2023-04-24T11:24:30;1.02;;;0.32;;
41255;SDS011;26989;45.524;10.938;2023-04-24T11:27:16;0.20;;;0.20;;
41255;SDS011;26989;45.524;10.938;2023-04-24T11:29:46;0.57;;;0.20;;
41255;SDS011;26989;45.524;10.938;2023-04-24T11:32:18;1.92;;;0.10;;
41255;SDS011;26989;45.524;10.938;2023-04-24T11:35:15;1.00;;;0.20;;
41255;SDS011;26989;45.524;10.938;2023-04-24T11:37:51;0.65;;;0.20;;
41255;SDS011;26989;45.524;10.938;2023-04-24T11:40:39;0.47;;;0.30;;
41255;SDS011;26989;45.524;10.938;2023-04-24T11:43:07;0.20;;;0.20;;
41255;SDS011;26989;45.524;10.938;2023-04-24T11:45:36;0.13;;;0.10;;
41255;SDS011;26989;45.524;10.938;2023-04-24T11:48:03;0.28;;;0.10;;
41255;SDS011;26989;45.524;10.938;2023-04-24T11:50:30;0.68;;;0.20;;
41255;SDS011;26989;45.524;10.938;2023-04-24T11:52:57;0.20;;;0.10;;
41255;SDS011;26989;45.524;10.938;2023-04-24T11:55:26;0.82;;;0.20;;
41255;SDS011;26989;45.524;10.938;2023-04-24T11:57:55;1.75;;;0.40;;
41255;SDS011;26989;45.524;10.938;2023-04-24T12:00:27;0.75;;;0.35;;
41255;SDS011;26989;45.524;10.938;2023-04-24T12:05:36;0.43;;;0.20;;
41255;SDS011;26989;45.524;10.938;2023-04-24T12:08:05;0.22;;;0.10;;
41255;SDS011;26989;45.524;10.938;2023-04-24T12:10:32;1.67;;;0.20;;
41255;SDS011;26989;45.524;10.938;2023-04-24T12:13:02;0.30;;;0.10;;
41255;SDS011;26989;45.524;10.938;2023-04-24T12:15:29;3.00;;;0.13;;
41255;SDS011;26989;45.524;10.938;2023-04-24T12:17:56;0.40;;;0.10;;
41255;SDS011;26989;45.524;10.938;2023-04-24T12:20:27;0.50;;;0.30;;
41255;SDS011;26989;45.524;10.938;2023-04-24T12:22:56;0.10;;;0.10;;
41255;SDS011;26989;45.524;10.938;2023-04-24T12:25:34;0.68;;;0.10;;
41255;SDS011;26989;45.524;10.938;2023-04-24T12:30:33;0.25;;;0.17;;
41255;SDS011;26989;45.524;10.938;2023-04-24T12:33:08;1.35;;;0.40;;
41255;SDS011;26989;45.524;10.938;2023-04-24T12:35:39;1.33;;;0.70;;
41255;SDS011;26989;45.524;10.938;2023-04-24T12:40:44;0.47;;;0.47;;
41255;SDS011;26989;45.524;10.938;2023-04-24T12:43:14;1.38;;;0.47;;
41255;SDS011;26989;45.524;10.938;2023-04-24T12:45:46;1.92;;;0.50;;
41255;SDS011;26989;45.524;10.938;2023-04-24T12:48:14;0.38;;;0.38;;
41255;SDS011;26989;45.524;10.938;2023-04-24T12:50:41;1.58;;;0.38;;
41255;SDS011;26989;45.524;10.938;2023-04-24T12:53:12;1.30;;;0.40;;
41255;SDS011;26989;45.524;10.938;2023-04-24T12:55:44;1.00;;;0.80;;
41255;SDS011;26989;45.524;10.938;2023-04-24T12:58:13;0.40;;;0.25;;
41255;SDS011;26989;45.524;10.938;2023-04-24T13:00:39;0.38;;;0.32;;
41255;SDS011;26989;45.524;10.938;2023-04-24T13:03:09;5.47;;;1.15;;
41255;SDS011;26989;45.524;10.938;2023-04-24T13:05:37;2.15;;;0.70;;
41255;SDS011;26989;45.524;10.938;2023-04-24T13:08:03;3.28;;;0.80;;
41255;SDS011;26989;45.524;10.938;2023-04-24T13:10:30;1.58;;;0.52;;
41255;SDS011;26989;45.524;10.938;2023-04-24T13:12:57;0.70;;;0.50;;
41255;SDS011;26989;45.524;10.938;2023-04-24T13:15:25;3.20;;;1.05;;
41255;SDS011;26989;45.524;10.938;2023-04-24T13:17:52;12.13;;;0.88;;
41255;SDS011;26989;45.524;10.938;2023-04-24T13:20:19;7.47;;;0.65;;
41255;SDS011;26989;45.524;10.938;2023-04-24T13:22:46;5.25;;;0.80;;
41255;SDS011;26989;45.524;10.938;2023-04-24T13:25:13;4.57;;;0.80;;
41255;SDS011;26989;45.524;10.938;2023-04-24T13:27:43;0.90;;;0.50;;
41255;SDS011;26989;45.524;10.938;2023-04-24T13:30:11;1.45;;;0.57;;
41255;SDS011;26989;45.524;10.938;2023-04-24T13:32:38;1.20;;;0.60;;
41255;SDS011;26989;45.524;10.938;2023-04-24T13:35:05;2.28;;;0.80;;
41255;SDS011;26989;45.524;10.938;2023-04-24T13:37:33;1.73;;;0.70;;
41255;SDS011;26989;45.524;10.938;2023-04-24T13:40:00;2.20;;;0.60;;
41255;SDS011;26989;45.524;10.938;2023-04-24T13:42:27;2.92;;;0.77;;
41255;SDS011;26989;45.524;10.938;2023-04-24T13:44:54;1.45;;;0.55;;
41255;SDS011;26989;45.524;10.938;2023-04-24T13:47:21;0.75;;;0.50;;
41255;SDS011;26989;45.524;10.938;2023-04-24T13:49:48;2.25;;;0.70;;
41255;SDS011;26989;45.524;10.938;2023-04-24T13:52:15;2.30;;;0.80;;
41255;SDS011;26989;45.524;10.938;2023-04-24T13:54:41;0.60;;;0.50;;
41255;SDS011;26989;45.524;10.938;2023-04-24T13:57:08;0.60;;;0.60;;
41255;SDS011;26989;45.524;10.938;2023-04-24T13:59:35;1.58;;;0.80;;
41255;SDS011;26989;45.524;10.938;2023-04-24T14:02:03;3.00;;;0.80;;
41255;SDS011;26989;45.524;10.938;2023-04-24T14:04:30;1.38;;;0.68;;
41255;SDS011;26989;45.524;10.938;2023-04-24T14:06:57;1.33;;;0.50;;
41255;SDS011;26989;45.524;10.938;2023-04-24T14:09:23;2.38;;;0.60;;
41255;SDS011;26989;45.524;10.938;2023-04-24T14:11:51;1.25;;;0.80;;
41255;SDS011;26989;45.524;10.938;2023-04-24T14:14:18;1.38;;;0.80;;
41255;SDS011;26989;45.524;10.938;2023-04-24T14:16:45;0.93;;;0.73;;
41255;SDS011;26989;45.524;10.938;2023-04-24T14:19:12;1.83;;;0.95;;
41255;SDS011;26989;45.524;10.938;2023-04-24T14:21:38;2.25;;;0.95;;
41255;SDS011;26989;45.524;10.938;2023-04-24T14:24:06;7.38;;;1.10;;
41255;SDS011;26989;45.524;10.938;2023-04-24T14:26:33;0.85;;;0.70;;
41255;SDS011;26989;45.524;10.938;2023-04-24T14:29:02;1.67;;;0.73;;
41255;SDS011;26989;45.524;10.938;2023-04-24T14:31:40;2.05;;;1.30;;
41255;SDS011;26989;45.524;10.938;2023-04-24T14:34:07;1.48;;;1.13;;
41255;SDS011;26989;45.524;10.938;2023-04-24T14:36:34;3.60;;;2.25;;
41255;SDS011;26989;45.524;10.938;2023-04-24T14:39:01;3.28;;;2.00;;
41255;SDS011;26989;45.524;10.938;2023-04-24T14:41:32;4.28;;;2.33;;
41255;SDS011;26989;45.524;10.938;2023-04-24T14:44:02;2.25;;;2.05;;
41255;SDS011;26989;45.524;10.938;2023-04-24T14:46:30;7.38;;;3.65;;
41255;SDS011;26989;45.524;10.938;2023-04-24T14:48:57;8.60;;;3.05;;
41255;SDS011;26989;45.524;10.938;2023-04-24T14:51:24;7.43;;;2.97;;
41255;SDS011;26989;45.524;10.938;2023-04-24T14:53:51;10.70;;;3.40;;
41255;SDS011;26989;45.524;10.938;2023-04-24T14:56:18;7.10;;;2.60;;
41255;SDS011;26989;45.524;10.938;2023-04-24T14:58:45;3.15;;;2.13;;
41255;SDS011;26989;45.524;10.938;2023-04-24T15:01:12;6.95;;;1.88;;
41255;SDS011;26989;45.524;10.938;2023-04-24T15:03:39;3.70;;;1.80;;